sensor_id;sensor_type;location;lat;lon;timestamp;P1;durP1;ratioP1;P2;durP2;ratioP2
34978;SDS011;21185;50.978;13.720;2023-09-12T00:01:20;4.60;;;2.95;;
34978;SDS011;21185;50.978;13.720;2023-09-12T00:06:22;6.90;;;3.15;;
34978;SDS011;21185;50.978;13.720;2023-09-12T00:11:25;7.10;;;3.92;;
34978;SDS011;21185;50.978;13.720;2023-09-12T00:16:28;8.27;;;3.15;;
34978;SDS011;21185;50.978;13.720;2023-09-12T00:21:30;5.90;;;3.33;;
34978;SDS011;21185;50.978;13.720;2023-09-12T00:26:32;7.25;;;3.58;;
34978;SDS011;21185;50.978;13.720;2023-09-12T00:31:34;7.70;;;3.70;;
34978;SDS011;21185;50.978;13.720;2023-09-12T00:36:37;4.80;;;2.60;;
34978;SDS011;21185;50.978;13.720;2023-09-12T00:41:39;5.78;;;3.53;;
34978;SDS011;21185;50.978;13.720;2023-09-12T00:46:41;6.55;;;3.22;;
34978;SDS011;21185;50.978;13.720;2023-09-12T00:51:53;6.55;;;2.90;;
34978;SDS011;21185;50.978;13.720;2023-09-12T00:56:57;5.03;;;3.13;;
34978;SDS011;21185;50.978;13.720;2023-09-12T01:01:59;6.05;;;3.17;;
34978;SDS011;21185;50.978;13.720;2023-09-12T01:07:03;5.35;;;2.97;;
34978;SDS011;21185;50.978;13.720;2023-09-12T01:12:06;5.93;;;3.10;;
34978;SDS011;21185;50.978;13.720;2023-09-12T01:17:08;6.05;;;3.20;;
34978;SDS011;21185;50.978;13.720;2023-09-12T01:27:47;10.27;;;3.20;;
34978;SDS011;21185;50.978;13.720;2023-09-12T01:32:52;8.07;;;3.47;;
34978;SDS011;21185;50.978;13.720;2023-09-12T01:37:55;8.63;;;3.65;;
34978;SDS011;21185;50.978;13.720;2023-09-12T01:42:58;5.95;;;3.40;;
34978;SDS011;21185;50.978;13.720;2023-09-12T01:48:02;6.22;;;3.63;;
34978;SDS011;21185;50.978;13.720;2023-09-12T01:53:08;5.90;;;3.30;;
34978;SDS011;21185;50.978;13.720;2023-09-12T01:58:10;7.38;;;4.25;;
34978;SDS011;21185;50.978;13.720;2023-09-12T02:03:13;5.28;;;3.38;;
34978;SDS011;21185;50.978;13.720;2023-09-12T02:08:15;6.00;;;3.15;;
34978;SDS011;21185;50.978;13.720;2023-09-12T02:13:17;7.30;;;3.83;;
34978;SDS011;21185;50.978;13.720;2023-09-12T02:18:19;7.38;;;3.42;;
34978;SDS011;21185;50.978;13.720;2023-09-12T02:23:21;7.32;;;3.38;;
34978;SDS011;21185;50.978;13.720;2023-09-12T02:28:24;6.32;;;3.40;;
34978;SDS011;21185;50.978;13.720;2023-09-12T02:33:26;5.63;;;3.28;;
34978;SDS011;21185;50.978;13.720;2023-09-12T02:38:28;5.85;;;3.70;;
34978;SDS011;21185;50.978;13.720;2023-09-12T02:43:30;5.93;;;3.30;;
34978;SDS011;21185;50.978;13.720;2023-09-12T02:48:33;9.23;;;3.15;;
34978;SDS011;21185;50.978;13.720;2023-09-12T02:53:34;6.00;;;2.72;;
34978;SDS011;21185;50.978;13.720;2023-09-12T02:58:36;7.43;;;3.20;;
34978;SDS011;21185;50.978;13.720;2023-09-12T03:03:38;5.82;;;3.17;;
34978;SDS011;21185;50.978;13.720;2023-09-12T03:08:41;10.93;;;2.88;;
34978;SDS011;21185;50.978;13.720;2023-09-12T03:13:44;5.60;;;3.08;;
34978;SDS011;21185;50.978;13.720;2023-09-12T03:18:47;6.90;;;3.55;;
34978;SDS011;21185;50.978;13.720;2023-09-12T03:23:49;5.38;;;3.00;;
34978;SDS011;21185;50.978;13.720;2023-09-12T03:28:51;5.07;;;3.00;;
34978;SDS011;21185;50.978;13.720;2023-09-12T03:33:53;5.32;;;3.13;;
34978;SDS011;21185;50.978;13.720;2023-09-12T03:38:55;5.32;;;3.10;;
34978;SDS011;21185;50.978;13.720;2023-09-12T03:43:57;8.27;;;3.22;;
34978;SDS011;21185;50.978;13.720;2023-09-12T03:49:00;10.23;;;3.45;;
34978;SDS011;21185;50.978;13.720;2023-09-12T03:54:02;7.68;;;3.10;;
34978;SDS011;21185;50.978;13.720;2023-09-12T03:59:05;7.35;;;3.13;;
34978;SDS011;21185;50.978;13.720;2023-09-12T04:04:07;8.93;;;3.25;;
34978;SDS011;21185;50.978;13.720;2023-09-12T04:09:10;7.55;;;3.28;;
34978;SDS011;21185;50.978;13.720;2023-09-12T04:14:13;8.07;;;2.80;;
34978;SDS011;21185;50.978;13.720;2023-09-12T04:19:16;5.68;;;2.78;;
34978;SDS011;21185;50.978;13.720;2023-09-12T04:24:18;5.43;;;2.90;;
34978;SDS011;21185;50.978;13.720;2023-09-12T04:29:20;6.82;;;3.55;;
34978;SDS011;21185;50.978;13.720;2023-09-12T04:34:26;5.30;;;3.03;;
34978;SDS011;21185;50.978;13.720;2023-09-12T04:39:29;5.80;;;3.30;;
34978;SDS011;21185;50.978;13.720;2023-09-12T04:44:35;6.53;;;2.90;;
34978;SDS011;21185;50.978;13.720;2023-09-12T04:49:39;5.15;;;3.22;;
34978;SDS011;21185;50.978;13.720;2023-09-12T04:54:41;14.02;;;3.25;;
34978;SDS011;21185;50.978;13.720;2023-09-12T04:59:43;5.95;;;2.90;;
34978;SDS011;21185;50.978;13.720;2023-09-12T05:04:45;6.13;;;2.90;;
34978;SDS011;21185;50.978;13.720;2023-09-12T05:09:49;5.32;;;3.13;;
34978;SDS011;21185;50.978;13.720;2023-09-12T05:14:51;5.60;;;3.08;;
34978;SDS011;21185;50.978;13.720;2023-09-12T05:19:54;7.22;;;2.60;;
34978;SDS011;21185;50.978;13.720;2023-09-12T05:24:56;5.95;;;2.70;;
34978;SDS011;21185;50.978;13.720;2023-09-12T05:29:58;6.05;;;3.22;;
34978;SDS011;21185;50.978;13.720;2023-09-12T05:35:01;4.72;;;2.72;;
34978;SDS011;21185;50.978;13.720;2023-09-12T05:40:22;5.65;;;3.03;;
34978;SDS011;21185;50.978;13.720;2023-09-12T05:45:28;5.25;;;3.28;;
34978;SDS011;21185;50.978;13.720;2023-09-12T05:50:36;5.85;;;2.88;;
34978;SDS011;21185;50.978;13.720;2023-09-12T05:55:39;5.22;;;2.55;;
34978;SDS011;21185;50.978;13.720;2023-09-12T06:00:42;8.45;;;2.80;;
34978;SDS011;21185;50.978;13.720;2023-09-12T06:05:44;10.40;;;3.13;;
34978;SDS011;21185;50.978;13.720;2023-09-12T06:10:46;12.55;;;3.00;;
34978;SDS011;21185;50.978;13.720;2023-09-12T06:15:50;6.60;;;2.88;;
34978;SDS011;21185;50.978;13.720;2023-09-12T06:20:52;5.90;;;3.00;;
34978;SDS011;21185;50.978;13.720;2023-09-12T06:25:54;4.60;;;2.70;;
34978;SDS011;21185;50.978;13.720;2023-09-12T06:30:56;4.78;;;2.40;;
34978;SDS011;21185;50.978;13.720;2023-09-12T06:36:00;8.27;;;2.53;;
34978;SDS011;21185;50.978;13.720;2023-09-12T06:41:12;8.70;;;2.63;;
34978;SDS011;21185;50.978;13.720;2023-09-12T06:46:15;5.13;;;2.13;;
34978;SDS011;21185;50.978;13.720;2023-09-12T06:51:22;10.23;;;2.72;;
34978;SDS011;21185;50.978;13.720;2023-09-12T06:56:34;6.53;;;2.80;;
34978;SDS011;21185;50.978;13.720;2023-09-12T07:01:39;7.18;;;2.15;;
34978;SDS011;21185;50.978;13.720;2023-09-12T07:06:42;7.28;;;3.13;;
34978;SDS011;21185;50.978;13.720;2023-09-12T07:11:45;5.10;;;2.80;;
34978;SDS011;21185;50.978;13.720;2023-09-12T07:16:49;5.63;;;3.10;;
34978;SDS011;21185;50.978;13.720;2023-09-12T07:21:51;8.25;;;2.83;;
34978;SDS011;21185;50.978;13.720;2023-09-12T07:26:54;9.93;;;3.42;;
34978;SDS011;21185;50.978;13.720;2023-09-12T07:31:56;8.65;;;2.50;;
34978;SDS011;21185;50.978;13.720;2023-09-12T07:37:03;5.05;;;2.40;;
34978;SDS011;21185;50.978;13.720;2023-09-12T07:42:05;8.38;;;2.53;;
34978;SDS011;21185;50.978;13.720;2023-09-12T07:47:07;5.47;;;2.50;;
34978;SDS011;21185;50.978;13.720;2023-09-12T07:52:09;5.50;;;2.58;;
34978;SDS011;21185;50.978;13.720;2023-09-12T07:57:11;7.03;;;3.08;;
34978;SDS011;21185;50.978;13.720;2023-09-12T08:02:14;5.75;;;3.15;;
34978;SDS011;21185;50.978;13.720;2023-09-12T08:07:16;7.55;;;3.38;;
34978;SDS011;21185;50.978;13.720;2023-09-12T08:12:19;8.60;;;3.42;;
34978;SDS011;21185;50.978;13.720;2023-09-12T08:17:24;5.97;;;3.35;;
34978;SDS011;21185;50.978;13.720;2023-09-12T08:22:27;13.27;;;3.50;;
34978;SDS011;21185;50.978;13.720;2023-09-12T08:27:29;11.27;;;3.95;;
34978;SDS011;21185;50.978;13.720;2023-09-12T08:32:31;8.93;;;3.20;;
34978;SDS011;21185;50.978;13.720;2023-09-12T08:37:33;7.22;;;3.35;;
34978;SDS011;21185;50.978;13.720;2023-09-12T08:42:44;5.68;;;2.90;;
34978;SDS011;21185;50.978;13.720;2023-09-12T08:47:52;5.47;;;3.15;;
34978;SDS011;21185;50.978;13.720;2023-09-12T08:52:57;10.88;;;3.25;;
34978;SDS011;21185;50.978;13.720;2023-09-12T08:58:09;8.88;;;3.00;;
34978;SDS011;21185;50.978;13.720;2023-09-12T09:03:11;5.28;;;3.05;;
34978;SDS011;21185;50.978;13.720;2023-09-12T09:08:13;6.05;;;3.10;;
34978;SDS011;21185;50.978;13.720;2023-09-12T09:13:17;7.00;;;3.08;;
34978;SDS011;21185;50.978;13.720;2023-09-12T09:18:20;5.95;;;3.30;;
34978;SDS011;21185;50.978;13.720;2023-09-12T09:23:22;7.07;;;2.58;;
34978;SDS011;21185;50.978;13.720;2023-09-12T09:28:25;4.97;;;2.65;;
34978;SDS011;21185;50.978;13.720;2023-09-12T09:33:27;9.05;;;3.13;;
34978;SDS011;21185;50.978;13.720;2023-09-12T09:38:38;5.88;;;2.85;;
34978;SDS011;21185;50.978;13.720;2023-09-12T09:43:42;7.78;;;2.30;;
34978;SDS011;21185;50.978;13.720;2023-09-12T09:48:49;11.80;;;3.28;;
34978;SDS011;21185;50.978;13.720;2023-09-12T09:53:52;7.85;;;3.63;;
34978;SDS011;21185;50.978;13.720;2023-09-12T09:58:59;5.00;;;2.33;;
34978;SDS011;21185;50.978;13.720;2023-09-12T10:04:05;7.13;;;2.70;;
34978;SDS011;21185;50.978;13.720;2023-09-12T10:09:10;8.00;;;2.65;;
34978;SDS011;21185;50.978;13.720;2023-09-12T10:14:15;5.05;;;2.63;;
34978;SDS011;21185;50.978;13.720;2023-09-12T10:19:24;9.70;;;3.85;;
34978;SDS011;21185;50.978;13.720;2023-09-12T10:24:29;5.45;;;2.88;;
34978;SDS011;21185;50.978;13.720;2023-09-12T10:29:33;6.65;;;2.45;;
34978;SDS011;21185;50.978;13.720;2023-09-12T10:34:36;8.95;;;3.33;;
34978;SDS011;21185;50.978;13.720;2023-09-12T10:39:44;7.43;;;3.05;;
34978;SDS011;21185;50.978;13.720;2023-09-12T10:44:48;8.00;;;2.50;;
34978;SDS011;21185;50.978;13.720;2023-09-12T10:49:51;9.90;;;3.35;;
34978;SDS011;21185;50.978;13.720;2023-09-12T10:54:54;8.23;;;2.47;;
34978;SDS011;21185;50.978;13.720;2023-09-12T11:10:30;16.15;;;3.03;;
34978;SDS011;21185;50.978;13.720;2023-09-12T11:15:34;9.48;;;3.60;;
34978;SDS011;21185;50.978;13.720;2023-09-12T11:20:49;5.88;;;2.60;;
34978;SDS011;21185;50.978;13.720;2023-09-12T11:26:02;8.63;;;3.40;;
34978;SDS011;21185;50.978;13.720;2023-09-12T11:31:07;6.90;;;2.75;;
34978;SDS011;21185;50.978;13.720;2023-09-12T11:36:12;5.65;;;3.38;;
34978;SDS011;21185;50.978;13.720;2023-09-12T11:41:38;8.38;;;3.13;;
34978;SDS011;21185;50.978;13.720;2023-09-12T11:46:43;10.57;;;2.88;;
34978;SDS011;21185;50.978;13.720;2023-09-12T11:51:51;3.67;;;2.28;;
34978;SDS011;21185;50.978;13.720;2023-09-12T11:56:55;14.65;;;3.38;;
34978;SDS011;21185;50.978;13.720;2023-09-12T12:02:01;4.45;;;2.25;;
34978;SDS011;21185;50.978;13.720;2023-09-12T12:07:08;11.00;;;2.40;;
34978;SDS011;21185;50.978;13.720;2023-09-12T12:12:12;5.93;;;2.85;;
34978;SDS011;21185;50.978;13.720;2023-09-12T12:17:16;5.88;;;2.60;;
34978;SDS011;21185;50.978;13.720;2023-09-12T12:22:18;9.57;;;2.97;;
34978;SDS011;21185;50.978;13.720;2023-09-12T12:27:20;14.80;;;2.78;;
34978;SDS011;21185;50.978;13.720;2023-09-12T12:32:22;4.35;;;2.35;;
34978;SDS011;21185;50.978;13.720;2023-09-12T12:37:28;6.43;;;2.80;;
34978;SDS011;21185;50.978;13.720;2023-09-12T12:42:35;8.48;;;2.80;;
34978;SDS011;21185;50.978;13.720;2023-09-12T12:47:56;10.95;;;3.13;;
34978;SDS011;21185;50.978;13.720;2023-09-12T12:53:00;8.60;;;2.92;;
34978;SDS011;21185;50.978;13.720;2023-09-12T12:58:03;8.32;;;2.70;;
34978;SDS011;21185;50.978;13.720;2023-09-12T13:03:05;7.95;;;2.35;;
34978;SDS011;21185;50.978;13.720;2023-09-12T13:08:08;12.98;;;3.28;;
34978;SDS011;21185;50.978;13.720;2023-09-12T13:13:10;8.68;;;2.78;;
34978;SDS011;21185;50.978;13.720;2023-09-12T13:18:12;7.10;;;2.55;;
34978;SDS011;21185;50.978;13.720;2023-09-12T13:23:14;6.30;;;3.05;;
34978;SDS011;21185;50.978;13.720;2023-09-12T13:28:17;9.63;;;3.08;;
34978;SDS011;21185;50.978;13.720;2023-09-12T13:33:19;6.90;;;2.58;;
34978;SDS011;21185;50.978;13.720;2023-09-12T13:38:22;9.43;;;3.17;;
34978;SDS011;21185;50.978;13.720;2023-09-12T13:43:25;9.15;;;3.00;;
34978;SDS011;21185;50.978;13.720;2023-09-12T13:48:27;9.65;;;2.78;;
34978;SDS011;21185;50.978;13.720;2023-09-12T13:53:29;6.53;;;2.70;;
34978;SDS011;21185;50.978;13.720;2023-09-12T13:58:31;7.57;;;2.70;;
34978;SDS011;21185;50.978;13.720;2023-09-12T14:03:49;8.27;;;2.88;;
34978;SDS011;21185;50.978;13.720;2023-09-12T14:08:52;5.70;;;2.95;;
34978;SDS011;21185;50.978;13.720;2023-09-12T14:13:55;9.65;;;2.67;;
34978;SDS011;21185;50.978;13.720;2023-09-12T14:19:16;7.63;;;3.05;;
34978;SDS011;21185;50.978;13.720;2023-09-12T14:24:18;5.43;;;2.38;;
34978;SDS011;21185;50.978;13.720;2023-09-12T14:29:22;8.27;;;2.67;;
34978;SDS011;21185;50.978;13.720;2023-09-12T14:34:26;6.28;;;3.45;;
34978;SDS011;21185;50.978;13.720;2023-09-12T14:39:29;9.25;;;2.60;;
34978;SDS011;21185;50.978;13.720;2023-09-12T14:44:31;12.77;;;2.60;;
34978;SDS011;21185;50.978;13.720;2023-09-12T14:49:34;11.00;;;2.60;;
34978;SDS011;21185;50.978;13.720;2023-09-12T14:54:49;9.23;;;2.53;;
34978;SDS011;21185;50.978;13.720;2023-09-12T14:59:51;3.88;;;2.03;;
34978;SDS011;21185;50.978;13.720;2023-09-12T15:04:53;7.72;;;2.25;;
34978;SDS011;21185;50.978;13.720;2023-09-12T15:09:55;10.13;;;3.10;;
34978;SDS011;21185;50.978;13.720;2023-09-12T15:14:57;7.22;;;2.80;;
34978;SDS011;21185;50.978;13.720;2023-09-12T15:19:59;8.77;;;2.42;;
34978;SDS011;21185;50.978;13.720;2023-09-12T15:25:02;9.60;;;2.22;;
34978;SDS011;21185;50.978;13.720;2023-09-12T15:30:05;12.13;;;2.53;;
34978;SDS011;21185;50.978;13.720;2023-09-12T15:35:08;4.22;;;2.03;;
34978;SDS011;21185;50.978;13.720;2023-09-12T15:40:12;6.75;;;2.30;;
34978;SDS011;21185;50.978;13.720;2023-09-12T15:45:14;11.05;;;2.58;;
34978;SDS011;21185;50.978;13.720;2023-09-12T15:50:17;4.78;;;2.22;;
34978;SDS011;21185;50.978;13.720;2023-09-12T15:55:20;8.55;;;2.50;;
34978;SDS011;21185;50.978;13.720;2023-09-12T16:00:25;8.68;;;2.30;;
34978;SDS011;21185;50.978;13.720;2023-09-12T16:05:28;5.47;;;2.30;;
34978;SDS011;21185;50.978;13.720;2023-09-12T16:10:30;8.95;;;2.10;;
34978;SDS011;21185;50.978;13.720;2023-09-12T16:15:33;12.73;;;2.63;;
34978;SDS011;21185;50.978;13.720;2023-09-12T16:20:36;9.98;;;2.20;;
34978;SDS011;21185;50.978;13.720;2023-09-12T16:25:38;4.25;;;2.05;;
34978;SDS011;21185;50.978;13.720;2023-09-12T16:30:40;7.88;;;1.98;;
34978;SDS011;21185;50.978;13.720;2023-09-12T16:35:46;5.82;;;2.45;;
34978;SDS011;21185;50.978;13.720;2023-09-12T16:40:48;4.28;;;2.05;;
34978;SDS011;21185;50.978;13.720;2023-09-12T16:45:50;6.85;;;2.05;;
34978;SDS011;21185;50.978;13.720;2023-09-12T16:50:53;9.93;;;2.00;;
34978;SDS011;21185;50.978;13.720;2023-09-12T16:55:54;5.82;;;2.10;;
34978;SDS011;21185;50.978;13.720;2023-09-12T17:00:59;6.72;;;2.13;;
34978;SDS011;21185;50.978;13.720;2023-09-12T17:06:02;5.47;;;2.65;;
34978;SDS011;21185;50.978;13.720;2023-09-12T17:11:04;6.47;;;2.42;;
34978;SDS011;21185;50.978;13.720;2023-09-12T17:16:06;6.80;;;2.60;;
34978;SDS011;21185;50.978;13.720;2023-09-12T17:21:08;13.05;;;2.78;;
34978;SDS011;21185;50.978;13.720;2023-09-12T17:26:11;4.90;;;2.28;;
34978;SDS011;21185;50.978;13.720;2023-09-12T17:31:13;6.45;;;2.78;;
34978;SDS011;21185;50.978;13.720;2023-09-12T17:36:20;5.65;;;2.63;;
34978;SDS011;21185;50.978;13.720;2023-09-12T17:41:23;9.85;;;2.83;;
34978;SDS011;21185;50.978;13.720;2023-09-12T17:46:25;9.20;;;2.60;;
34978;SDS011;21185;50.978;13.720;2023-09-12T17:51:27;10.05;;;2.70;;
34978;SDS011;21185;50.978;13.720;2023-09-12T17:56:31;6.40;;;3.42;;
34978;SDS011;21185;50.978;13.720;2023-09-12T18:01:33;6.95;;;3.03;;
34978;SDS011;21185;50.978;13.720;2023-09-12T18:06:35;7.25;;;2.75;;
34978;SDS011;21185;50.978;13.720;2023-09-12T18:11:38;7.38;;;3.13;;
34978;SDS011;21185;50.978;13.720;2023-09-12T18:16:40;12.93;;;2.95;;
34978;SDS011;21185;50.978;13.720;2023-09-12T18:21:43;6.18;;;2.95;;
34978;SDS011;21185;50.978;13.720;2023-09-12T18:26:45;4.65;;;2.70;;
34978;SDS011;21185;50.978;13.720;2023-09-12T18:31:48;6.20;;;2.78;;
34978;SDS011;21185;50.978;13.720;2023-09-12T18:36:51;7.40;;;2.65;;
34978;SDS011;21185;50.978;13.720;2023-09-12T18:41:54;7.85;;;3.55;;
34978;SDS011;21185;50.978;13.720;2023-09-12T18:46:56;7.40;;;3.17;;
34978;SDS011;21185;50.978;13.720;2023-09-12T18:51:59;9.63;;;4.47;;
34978;SDS011;21185;50.978;13.720;2023-09-12T18:57:02;7.28;;;3.38;;
34978;SDS011;21185;50.978;13.720;2023-09-12T19:02:11;10.38;;;3.00;;
34978;SDS011;21185;50.978;13.720;2023-09-12T19:07:14;7.45;;;3.08;;
34978;SDS011;21185;50.978;13.720;2023-09-12T19:12:16;6.78;;;2.85;;
34978;SDS011;21185;50.978;13.720;2023-09-12T19:17:18;12.13;;;2.65;;
34978;SDS011;21185;50.978;13.720;2023-09-12T19:22:20;6.78;;;2.63;;
34978;SDS011;21185;50.978;13.720;2023-09-12T19:27:22;7.60;;;3.22;;
34978;SDS011;21185;50.978;13.720;2023-09-12T19:32:25;6.43;;;3.00;;
34978;SDS011;21185;50.978;13.720;2023-09-12T19:37:28;11.52;;;3.03;;
34978;SDS011;21185;50.978;13.720;2023-09-12T19:42:30;7.93;;;3.40;;
34978;SDS011;21185;50.978;13.720;2023-09-12T19:47:33;10.55;;;3.65;;
34978;SDS011;21185;50.978;13.720;2023-09-12T19:52:55;5.03;;;2.80;;
34978;SDS011;21185;50.978;13.720;2023-09-12T19:57:58;10.13;;;2.95;;
34978;SDS011;21185;50.978;13.720;2023-09-12T20:02:59;4.68;;;2.80;;
34978;SDS011;21185;50.978;13.720;2023-09-12T20:08:02;5.25;;;2.90;;
34978;SDS011;21185;50.978;13.720;2023-09-12T20:13:04;10.40;;;3.17;;
34978;SDS011;21185;50.978;13.720;2023-09-12T20:18:07;6.13;;;3.17;;
34978;SDS011;21185;50.978;13.720;2023-09-12T20:23:11;6.80;;;3.28;;
34978;SDS011;21185;50.978;13.720;2023-09-12T20:28:13;7.35;;;3.25;;
34978;SDS011;21185;50.978;13.720;2023-09-12T20:33:15;8.13;;;3.10;;
34978;SDS011;21185;50.978;13.720;2023-09-12T20:38:18;10.32;;;3.50;;
34978;SDS011;21185;50.978;13.720;2023-09-12T20:43:20;7.22;;;3.55;;
34978;SDS011;21185;50.978;13.720;2023-09-12T20:48:22;7.50;;;3.88;;
34978;SDS011;21185;50.978;13.720;2023-09-12T20:53:24;14.13;;;3.05;;
34978;SDS011;21185;50.978;13.720;2023-09-12T20:58:25;5.57;;;3.15;;
34978;SDS011;21185;50.978;13.720;2023-09-12T21:03:27;9.65;;;3.00;;
34978;SDS011;21185;50.978;13.720;2023-09-12T21:08:30;7.65;;;3.20;;
34978;SDS011;21185;50.978;13.720;2023-09-12T21:13:33;3.72;;;2.70;;
34978;SDS011;21185;50.978;13.720;2023-09-12T21:18:34;9.82;;;3.40;;
34978;SDS011;21185;50.978;13.720;2023-09-12T21:23:36;5.00;;;3.13;;
34978;SDS011;21185;50.978;13.720;2023-09-12T21:28:38;4.68;;;3.28;;
34978;SDS011;21185;50.978;13.720;2023-09-12T21:33:40;8.75;;;3.78;;
34978;SDS011;21185;50.978;13.720;2023-09-12T21:38:43;11.63;;;3.28;;
34978;SDS011;21185;50.978;13.720;2023-09-12T21:43:45;8.13;;;3.88;;
34978;SDS011;21185;50.978;13.720;2023-09-12T21:48:49;10.45;;;4.00;;
34978;SDS011;21185;50.978;13.720;2023-09-12T21:53:51;8.77;;;4.07;;
34978;SDS011;21185;50.978;13.720;2023-09-12T21:58:53;7.15;;;3.90;;
34978;SDS011;21185;50.978;13.720;2023-09-12T22:03:54;9.15;;;4.07;;
34978;SDS011;21185;50.978;13.720;2023-09-12T22:08:56;9.20;;;3.80;;
34978;SDS011;21185;50.978;13.720;2023-09-12T22:13:58;9.82;;;4.32;;
34978;SDS011;21185;50.978;13.720;2023-09-12T22:19:00;11.13;;;3.92;;
34978;SDS011;21185;50.978;13.720;2023-09-12T22:24:04;7.65;;;3.92;;
34978;SDS011;21185;50.978;13.720;2023-09-12T22:29:06;14.77;;;4.43;;
34978;SDS011;21185;50.978;13.720;2023-09-12T22:34:08;8.88;;;3.58;;
34978;SDS011;21185;50.978;13.720;2023-09-12T22:39:10;9.15;;;4.57;;
34978;SDS011;21185;50.978;13.720;2023-09-12T22:44:13;8.70;;;4.40;;
34978;SDS011;21185;50.978;13.720;2023-09-12T22:49:15;8.45;;;4.53;;
34978;SDS011;21185;50.978;13.720;2023-09-12T22:54:17;8.95;;;4.00;;
34978;SDS011;21185;50.978;13.720;2023-09-12T22:59:19;9.55;;;4.28;;
34978;SDS011;21185;50.978;13.720;2023-09-12T23:04:21;8.05;;;3.95;;
34978;SDS011;21185;50.978;13.720;2023-09-12T23:09:24;7.90;;;4.45;;
34978;SDS011;21185;50.978;13.720;2023-09-12T23:14:25;7.55;;;4.25;;
34978;SDS011;21185;50.978;13.720;2023-09-12T23:19:28;8.48;;;4.57;;
34978;SDS011;21185;50.978;13.720;2023-09-12T23:24:29;7.55;;;4.10;;
34978;SDS011;21185;50.978;13.720;2023-09-12T23:29:32;9.20;;;4.68;;
34978;SDS011;21185;50.978;13.720;2023-09-12T23:34:34;7.03;;;4.20;;
34978;SDS011;21185;50.978;13.720;2023-09-12T23:39:36;8.85;;;3.80;;
34978;SDS011;21185;50.978;13.720;2023-09-12T23:44:38;8.10;;;4.28;;
34978;SDS011;21185;50.978;13.720;2023-09-12T23:49:41;8.90;;;4.25;;
34978;SDS011;21185;50.978;13.720;2023-09-12T23:54:44;11.52;;;4.50;;
34978;SDS011;21185;50.978;13.720;2023-09-12T23:59:46;10.55;;;4.43;;
